Time;durP1;ratioP1;P1;durP2;ratioP2;P2;SDS_P1;SDS_P2;PMS_P1;PMS_P2;Temp;Humidity;BMP_temperature;BMP_pressure;BME280_temperature;BME280_humidity;BME280_pressure;Samples;Min_cycle;Max_cycle;Signal;HPM_P1;HPM_P2
2021/04/22 00:02:24;;;;;;;7.30;6.40;;;10.10;90.90;;;;;;6276485;28;20474;-60
2021/04/22 00:05:31;;;;;;;6.50;5.90;;;10.10;90.80;;;;;;6275408;28;20462;-60
2021/04/22 00:08:33;;;;;;;8.83;6.77;;;10.10;90.90;;;;;;6275867;28;20481;-60
2021/04/22 00:11:36;;;;;;;7.47;6.50;;;10.10;90.90;;;;;;6257211;28;20475;-61
2021/04/22 00:14:38;;;;;;;6.63;6.03;;;10.00;91.00;;;;;;6248942;28;20783;-60
2021/04/22 00:17:41;;;;;;;5.87;5.37;;;10.00;91.10;;;;;;6248044;28;20490;-60
2021/04/22 00:20:44;;;;;;;5.17;4.70;;;9.90;91.50;;;;;;6248654;28;20485;-62
2021/04/22 00:23:46;;;;;;;5.60;4.93;;;9.90;91.70;;;;;;6248301;28;20482;-63
2021/04/22 00:26:52;;;;;;;6.93;6.07;;;9.80;91.90;;;;;;6248530;28;20472;-62
2021/04/22 00:29:54;;;;;;;7.00;5.77;;;9.80;92.10;;;;;;6249417;28;20481;-62
2021/04/22 00:32:56;;;;;;;4.60;4.20;;;9.80;92.20;;;;;;6250496;28;20803;-63
2021/04/22 00:35:58;;;;;;;5.53;5.00;;;9.90;92.30;;;;;;6250251;28;20485;-59
2021/04/22 00:39:00;;;;;;;7.20;5.83;;;9.90;92.30;;;;;;6250151;28;20479;-61
2021/04/22 00:42:05;;;;;;;5.80;5.20;;;9.80;92.30;;;;;;6250477;28;20489;-61
2021/04/22 00:45:08;;;;;;;5.77;5.27;;;9.70;92.40;;;;;;6245635;28;20474;-59
2021/04/22 00:48:11;;;;;;;5.80;4.80;;;9.60;92.60;;;;;;6250246;28;20929;-62
2021/04/22 00:51:14;;;;;;;5.70;5.20;;;9.60;93.00;;;;;;6249694;28;20962;-63
2021/04/22 00:54:16;;;;;;;7.70;5.37;;;9.60;93.40;;;;;;6250029;28;20476;-62
2021/04/22 00:57:19;;;;;;;10.00;5.23;;;9.60;93.40;;;;;;6249464;28;20489;-61
2021/04/22 01:00:25;;;;;;;5.30;4.80;;;9.60;93.50;;;;;;6249523;28;20475;-59
2021/04/22 01:03:28;;;;;;;5.87;5.03;;;9.50;93.50;;;;;;6247895;28;20978;-62
2021/04/22 01:06:31;;;;;;;5.53;4.93;;;9.50;93.80;;;;;;6238193;28;20479;-62
2021/04/22 01:09:33;;;;;;;6.07;4.87;;;9.40;93.90;;;;;;6247492;28;20478;-62
2021/04/22 01:12:36;;;;;;;6.60;4.90;;;9.40;94.10;;;;;;6247537;28;20490;-62
2021/04/22 01:15:38;;;;;;;5.50;5.00;;;9.50;94.20;;;;;;6247767;28;20966;-62
2021/04/22 01:18:42;;;;;;;6.40;5.40;;;9.50;94.20;;;;;;6248802;28;20809;-62
2021/04/22 01:21:46;;;;;;;5.80;5.30;;;9.50;94.30;;;;;;6249663;28;20459;-62
2021/04/22 01:24:48;;;;;;;6.53;5.27;;;9.50;94.30;;;;;;6247292;28;20455;-62
2021/04/22 01:27:51;;;;;;;5.50;5.00;;;9.50;94.30;;;;;;6248500;28;20451;-62
2021/04/22 01:30:55;;;;;;;6.20;5.57;;;9.50;94.50;;;;;;6249232;28;20474;-62
2021/04/22 01:34:01;;;;;;;6.37;5.77;;;9.50;94.60;;;;;;6249371;28;20932;-61
2021/04/22 01:37:05;;;;;;;6.07;5.57;;;9.50;94.50;;;;;;6248983;28;20786;-62
2021/04/22 01:40:09;;;;;;;4.80;4.40;;;9.60;94.60;;;;;;6249422;28;20470;-63
2021/04/22 01:43:12;;;;;;;5.20;4.70;;;9.60;94.50;;;;;;6249290;28;20479;-63
2021/04/22 01:46:14;;;;;;;5.70;5.10;;;9.60;94.40;;;;;;6249642;28;20471;-62
2021/04/22 01:49:16;;;;;;;6.13;5.47;;;9.60;94.40;;;;;;6248913;28;20479;-62
2021/04/22 01:52:19;;;;;;;5.23;4.73;;;9.60;94.50;;;;;;6249540;28;20475;-62
2021/04/22 01:55:23;;;;;;;5.37;4.87;;;9.60;94.50;;;;;;6249185;28;20944;-62
2021/04/22 01:58:26;;;;;;;6.67;5.97;;;9.60;94.20;;;;;;6248208;28;20781;-62
2021/04/22 02:01:28;;;;;;;5.30;4.80;;;9.60;94.30;;;;;;6249046;28;20475;-62
2021/04/22 02:04:31;;;;;;;6.60;5.50;;;9.60;94.40;;;;;;6248653;28;20974;-63
2021/04/22 02:07:34;;;;;;;6.70;5.90;;;9.60;94.40;;;;;;6244613;28;20481;-63
2021/04/22 02:10:38;;;;;;;5.47;4.67;;;9.60;94.60;;;;;;6248616;28;20513;-62
2021/04/22 02:13:40;;;;;;;5.83;5.00;;;9.60;94.80;;;;;;6249190;28;20475;-62
2021/04/22 02:16:42;;;;;;;6.03;5.47;;;9.70;94.90;;;;;;6248732;28;20475;-62
2021/04/22 02:19:44;;;;;;;6.63;5.93;;;9.80;94.80;;;;;;6249424;28;20467;-63
2021/04/22 02:22:48;;;;;;;8.17;5.70;;;9.80;94.60;;;;;;6248717;28;20483;-62
2021/04/22 02:25:50;;;;;;;6.13;5.17;;;9.80;94.50;;;;;;6248780;28;20477;-63
2021/04/22 02:28:53;;;;;;;7.73;5.60;;;9.90;94.60;;;;;;6249505;28;20471;-66
2021/04/22 02:31:55;;;;;;;6.47;5.43;;;9.90;94.30;;;;;;6248679;28;20962;-66
2021/04/22 02:34:57;;;;;;;6.33;5.73;;;9.90;94.20;;;;;;6248884;28;20475;-61
2021/04/22 02:38:02;;;;;;;5.90;4.90;;;9.90;94.00;;;;;;6248692;28;20490;-65
2021/04/22 02:41:04;;;;;;;6.57;5.53;;;9.90;93.90;;;;;;6253122;28;20474;-63
2021/04/22 02:44:06;;;;;;;9.37;5.73;;;9.90;93.90;;;;;;6253005;28;20486;-66
2021/04/22 02:47:09;;;;;;;5.93;5.40;;;9.90;93.90;;;;;;6253668;28;20471;-66
2021/04/22 02:50:15;;;;;;;5.67;5.07;;;9.90;93.80;;;;;;6252617;28;21042;-66
2021/04/22 02:53:18;;;;;;;6.93;5.37;;;9.90;93.90;;;;;;6252576;28;20817;-61
2021/04/22 02:56:20;;;;;;;6.80;5.33;;;9.90;94.00;;;;;;6252109;28;20490;-62
2021/04/22 02:59:22;;;;;;;6.23;5.60;;;9.80;94.10;;;;;;6252846;28;20489;-66
2021/04/22 03:02:25;;;;;;;5.60;5.00;;;9.80;94.20;;;;;;6252895;28;20600;-61
2021/04/22 03:05:28;;;;;;;5.90;5.30;;;9.70;94.40;;;;;;6252864;28;20467;-67
2021/04/22 03:08:30;;;;;;;7.93;5.50;;;9.70;94.50;;;;;;6253094;28;20486;-67
2021/04/22 03:11:33;;;;;;;7.60;6.10;;;9.60;94.60;;;;;;6252213;28;21007;-65
2021/04/22 03:14:35;;;;;;;5.90;5.30;;;9.60;94.50;;;;;;6252195;28;20497;-62
2021/04/22 03:17:37;;;;;;;9.80;6.50;;;9.50;94.30;;;;;;6252410;28;20475;-62
2021/04/22 03:20:40;;;;;;;7.93;5.43;;;9.40;94.50;;;;;;6252138;28;20599;-64
2021/04/22 03:23:43;;;;;;;6.20;5.40;;;9.30;94.60;;;;;;6252077;28;20829;-63
2021/04/22 03:26:45;;;;;;;7.30;6.50;;;9.20;94.60;;;;;;6252009;28;20493;-63
2021/04/22 03:29:47;;;;;;;7.00;5.50;;;9.20;94.80;;;;;;6251896;28;20479;-62
2021/04/22 03:32:50;;;;;;;7.80;6.13;;;9.10;95.30;;;;;;6252036;28;20481;-63
2021/04/22 03:35:53;;;;;;;7.60;6.20;;;9.00;95.70;;;;;;6251797;28;20522;-62
2021/04/22 03:38:56;;;;;;;7.67;6.87;;;8.90;96.00;;;;;;6252206;28;20818;-62
2021/04/22 03:41:58;;;;;;;8.30;7.30;;;8.90;96.20;;;;;;6251669;28;20498;-62
2021/04/22 03:45:00;;;;;;;8.00;7.20;;;8.80;96.60;;;;;;6251587;28;20478;-62
2021/04/22 03:48:03;;;;;;;7.03;6.33;;;8.80;96.70;;;;;;6251501;28;21002;-62
2021/04/22 03:51:05;;;;;;;8.77;7.07;;;8.70;97.10;;;;;;6251483;28;20471;-62
2021/04/22 03:54:08;;;;;;;9.20;7.10;;;8.60;97.20;;;;;;6251614;28;20478;-61
2021/04/22 03:57:10;;;;;;;8.00;6.90;;;8.50;97.60;;;;;;6251427;28;20475;-61
2021/04/22 04:00:15;;;;;;;7.00;6.30;;;8.60;98.00;;;;;;6251479;28;20967;-61
2021/04/22 04:03:18;;;;;;;8.87;6.50;;;8.50;98.10;;;;;;6251166;28;20491;-61
2021/04/22 04:06:20;;;;;;;8.27;6.50;;;8.60;98.30;;;;;;6251498;28;20471;-61
2021/04/22 04:09:23;;;;;;;7.33;6.10;;;8.60;98.30;;;;;;6251082;28;20475;-61
2021/04/22 04:12:25;;;;;;;7.20;6.60;;;8.70;98.20;;;;;;6251650;28;20472;-61
2021/04/22 04:15:28;;;;;;;7.20;6.47;;;8.70;98.10;;;;;;6251322;28;20475;-61
2021/04/22 04:18:30;;;;;;;7.13;6.20;;;8.90;97.90;;;;;;6241646;28;20959;-63
2021/04/22 04:21:32;;;;;;;9.17;5.80;;;8.90;97.50;;;;;;6251306;28;20471;-62
2021/04/22 04:24:35;;;;;;;7.27;6.50;;;8.90;97.10;;;;;;6250624;28;20475;-61
2021/04/22 04:27:38;;;;;;;8.33;7.37;;;8.90;96.90;;;;;;6250933;28;20467;-61
2021/04/22 04:30:40;;;;;;;8.77;7.10;;;8.90;96.90;;;;;;6250706;28;20482;-63
2021/04/22 04:33:42;;;;;;;12.33;8.20;;;8.90;96.90;;;;;;6250717;28;20799;-62
2021/04/22 04:36:46;;;;;;;9.77;6.50;;;8.90;96.80;;;;;;6250324;28;20632;-65
2021/04/22 04:39:50;;;;;;;9.87;7.70;;;8.90;96.70;;;;;;6250949;28;20440;-63
2021/04/22 04:42:52;;;;;;;8.27;7.10;;;9.00;96.70;;;;;;6250761;28;20492;-67
2021/04/22 04:45:54;;;;;;;8.00;7.20;;;8.90;96.70;;;;;;6250815;28;20443;-61
2021/04/22 04:48:56;;;;;;;7.90;7.10;;;8.90;96.70;;;;;;6250981;28;20439;-63
2021/04/22 04:51:58;;;;;;;9.10;7.00;;;8.90;96.70;;;;;;6250416;28;20443;-66
2021/04/22 04:55:02;;;;;;;8.40;6.63;;;9.00;96.70;;;;;;6250591;28;20470;-66
2021/04/22 04:58:04;;;;;;;9.93;7.77;;;9.10;96.70;;;;;;6250503;28;20455;-61
2021/04/22 05:01:06;;;;;;;9.60;7.80;;;9.10;96.60;;;;;;6249598;28;20486;-62
2021/04/22 05:04:08;;;;;;;8.90;8.00;;;9.20;96.80;;;;;;6250093;28;20486;-67
2021/04/22 05:07:11;;;;;;;10.73;9.20;;;9.30;97.00;;;;;;6250087;28;20470;-63
2021/04/22 05:10:15;;;;;;;9.50;8.27;;;9.60;97.00;;;;;;6250043;28;20467;-61
2021/04/22 05:13:17;;;;;;;8.53;7.43;;;9.80;96.60;;;;;;6250143;28;20482;-62
2021/04/22 05:16:19;;;;;;;12.73;7.00;;;10.00;95.70;;;;;;6249582;28;20474;-61
2021/04/22 05:19:22;;;;;;;14.40;7.27;;;10.30;95.70;;;;;;6249724;28;20549;-67
2021/04/22 05:22:24;;;;;;;15.30;7.23;;;10.60;95.10;;;;;;6249945;28;20467;-67
2021/04/22 05:25:27;;;;;;;8.17;7.10;;;10.90;94.50;;;;;;6249524;28;20501;-62
2021/04/22 05:28:32;;;;;;;11.73;7.03;;;11.20;94.10;;;;;;6249941;28;20561;-62
2021/04/22 05:31:34;;;;;;;9.03;7.00;;;11.60;93.00;;;;;;6249274;28;20855;-67
2021/04/22 05:34:36;;;;;;;8.43;6.87;;;12.00;92.20;;;;;;6249759;28;20475;-62
2021/04/22 05:37:39;;;;;;;8.23;6.73;;;12.60;90.60;;;;;;6249307;28;20475;-62
2021/04/22 05:40:42;;;;;;;8.10;6.90;;;13.10;89.10;;;;;;6249733;28;20471;-62
2021/04/22 05:43:44;;;;;;;9.70;7.10;;;13.60;85.30;;;;;;6248964;28;20476;-62
2021/04/22 05:46:46;;;;;;;8.67;6.67;;;14.20;83.00;;;;;;6249563;28;20482;-61
2021/04/22 05:49:48;;;;;;;11.80;7.03;;;14.70;80.40;;;;;;6249437;28;20485;-62
2021/04/22 05:52:51;;;;;;;11.40;6.40;;;15.20;78.50;;;;;;6249148;28;20931;-62
2021/04/22 05:55:54;;;;;;;11.07;8.20;;;15.80;75.30;;;;;;6249493;28;20596;-62
2021/04/22 05:58:56;;;;;;;9.83;7.13;;;16.10;72.90;;;;;;6249366;28;20471;-62
2021/04/22 06:01:58;;;;;;;11.40;6.53;;;15.90;70.10;;;;;;6249965;28;20467;-62
2021/04/22 06:05:00;;;;;;;11.67;6.93;;;15.40;71.20;;;;;;6248981;28;20506;-61
2021/04/22 06:08:03;;;;;;;9.23;6.90;;;14.90;72.60;;;;;;6249256;28;20965;-62
2021/04/22 06:11:06;;;;;;;7.80;7.10;;;14.80;74.30;;;;;;6248853;28;20471;-62
2021/04/22 06:14:08;;;;;;;9.90;6.87;;;15.40;74.00;;;;;;6252705;28;20480;-61
2021/04/22 06:17:11;;;;;;;7.30;6.70;;;16.50;69.30;;;;;;6253109;28;21002;-62
2021/04/22 06:20:15;;;;;;;8.57;6.43;;;17.50;66.00;;;;;;6254260;28;20957;-61
2021/04/22 06:23:17;;;;;;;11.23;6.53;;;18.50;61.00;;;;;;6253579;28;20983;-61
2021/04/22 06:26:21;;;;;;;10.33;7.57;;;19.10;59.40;;;;;;6244734;28;20966;-61
2021/04/22 06:29:23;;;;;;;8.07;7.27;;;19.90;56.00;;;;;;6253752;28;20987;-61
2021/04/22 06:32:25;;;;;;;7.50;6.20;;;21.00;53.80;;;;;;6253565;28;20780;-61
2021/04/22 06:35:28;;;;;;;7.90;5.50;;;21.80;49.80;;;;;;6254048;28;20244;-62
2021/04/22 06:38:30;;;;;;;10.00;6.70;;;22.70;47.20;;;;;;6253014;28;20285;-61
2021/04/22 06:41:33;;;;;;;7.00;5.03;;;23.40;45.00;;;;;;6253514;28;20228;-62
2021/04/22 06:44:36;;;;;;;6.13;5.63;;;24.00;42.80;;;;;;6253333;28;20362;-62
2021/04/22 06:47:39;;;;;;;6.43;5.83;;;24.70;42.00;;;;;;6253251;28;20307;-62
2021/04/22 06:50:43;;;;;;;5.97;5.40;;;25.10;39.00;;;;;;6252972;28;20236;-61
2021/04/22 06:53:45;;;;;;;8.50;6.17;;;24.60;38.50;;;;;;6252582;28;20699;-61
2021/04/22 06:56:49;;;;;;;6.10;5.60;;;24.90;38.60;;;;;;6252569;28;20695;-62
2021/04/22 06:59:52;;;;;;;6.20;5.70;;;25.80;37.20;;;;;;6253012;28;20251;-62
2021/04/22 07:02:54;;;;;;;7.07;5.27;;;26.50;36.10;;;;;;6252453;28;20232;-62
2021/04/22 07:05:56;;;;;;;5.47;4.97;;;27.40;34.40;;;;;;6252866;28;20310;-60
2021/04/22 07:08:58;;;;;;;6.93;4.80;;;28.40;32.40;;;;;;6252667;28;20671;-60
2021/04/22 07:12:02;;;;;;;10.80;6.00;;;29.20;31.00;;;;;;6252246;28;20675;-62
2021/04/22 07:15:06;;;;;;;5.73;5.23;;;30.10;29.50;;;;;;6252686;28;20691;-62
2021/04/22 07:18:11;;;;;;;5.20;4.70;;;30.20;28.40;;;;;;6252536;28;20231;-61
2021/04/22 07:21:14;;;;;;;4.57;4.17;;;30.20;27.60;;;;;;6252714;28;20278;-61
2021/04/22 07:24:16;;;;;;;6.67;5.00;;;29.90;27.70;;;;;;6251592;28;20231;-62
2021/04/22 07:27:19;;;;;;;4.93;4.53;;;30.20;27.80;;;;;;6252671;28;20311;-62
2021/04/22 07:30:23;;;;;;;6.77;4.63;;;31.40;26.90;;;;;;6247459;28;20242;-62
2021/04/22 07:33:25;;;;;;;5.55;4.95;;;32.40;25.50;;;;;;6251107;28;20224;-62
2021/04/22 07:36:27;;;;;;;7.68;5.05;;;33.20;24.70;;;;;;6251619;28;20254;-65
2021/04/22 07:39:30;;;;;;;4.82;4.43;;;33.90;24.10;;;;;;6248986;28;20357;-62
2021/04/22 07:42:33;;;;;;;5.13;4.07;;;34.60;23.10;;;;;;6251347;28;20311;-61
2021/04/22 07:45:37;;;;;;;4.50;4.10;;;35.60;22.60;;;;;;6252024;28;20231;-60
2021/04/22 07:48:40;;;;;;;4.72;4.22;;;36.60;21.60;;;;;;6251460;28;20220;-61
2021/04/22 07:51:43;;;;;;;4.63;4.13;;;37.00;20.30;;;;;;6251880;28;20224;-61
2021/04/22 07:54:46;;;;;;;4.53;4.22;;;38.10;19.80;;;;;;6251082;28;20242;-61
2021/04/22 07:57:49;;;;;;;4.72;4.30;;;38.70;19.00;;;;;;6250658;28;20275;-62
2021/04/22 08:00:52;;;;;;;4.55;4.15;;;39.20;18.70;;;;;;6250770;28;20586;-61
2021/04/22 08:03:54;;;;;;;4.57;4.18;;;40.20;17.80;;;;;;6250287;28;20555;-63
2021/04/22 08:06:57;;;;;;;4.70;4.32;;;40.70;17.60;;;;;;6251119;28;20203;-61
2021/04/22 08:09:59;;;;;;;4.78;4.47;;;41.00;17.20;;;;;;6251490;28;20199;-61
2021/04/22 08:13:04;;;;;;;7.20;4.65;;;41.30;17.10;;;;;;6251172;28;20223;-60
2021/04/22 08:16:06;;;;;;;5.38;4.95;;;42.20;16.60;;;;;;6250388;28;20892;-60
2021/04/22 08:19:08;;;;;;;4.43;4.10;;;42.60;15.90;;;;;;6250709;28;20227;-60
2021/04/22 08:22:11;;;;;;;4.70;4.40;;;42.40;16.10;;;;;;6250985;28;20219;-60
2021/04/22 08:25:18;;;;;;;5.05;4.68;;;42.50;15.90;;;;;;6250637;28;20234;-60
2021/04/22 08:28:23;;;;;;;4.35;3.95;;;42.60;15.80;;;;;;6250085;28;20265;-64
2021/04/22 08:31:28;;;;;;;5.70;5.20;;;42.60;16.00;;;;;;6225341;28;20228;-59
2021/04/22 08:34:30;;;;;;;4.70;4.40;;;43.20;15.40;;;;;;6219696;28;20228;-59
2021/04/22 08:37:35;;;;;;;5.28;4.88;;;43.10;15.40;;;;;;6223114;28;20239;-61
2021/04/22 08:40:38;;;;;;;5.30;4.90;;;43.40;15.80;;;;;;6240531;28;20538;-59
2021/04/22 08:43:42;;;;;;;5.65;4.95;;;43.30;15.40;;;;;;6248048;28;20231;-61
2021/04/22 08:46:45;;;;;;;5.18;4.78;;;43.40;15.30;;;;;;6248327;28;20695;-60
2021/04/22 08:49:48;;;;;;;6.85;5.45;;;43.70;15.00;;;;;;6250485;28;20366;-60
2021/04/22 08:52:53;;;;;;;5.30;4.90;;;43.50;15.00;;;;;;6250194;28;20239;-61
2021/04/22 08:55:56;;;;;;;6.53;5.30;;;43.60;15.00;;;;;;6250006;28;20717;-61
2021/04/22 08:59:00;;;;;;;5.35;4.95;;;43.60;14.80;;;;;;6250056;28;20265;-61
2021/04/22 09:02:02;;;;;;;5.22;4.93;;;43.70;14.80;;;;;;6249980;28;20235;-61
2021/04/22 09:05:06;;;;;;;4.95;4.53;;;43.10;14.80;;;;;;6250130;28;20245;-61
2021/04/22 09:08:09;;;;;;;5.07;4.68;;;43.40;15.00;;;;;;6249915;28;20667;-61
2021/04/22 09:11:13;;;;;;;7.22;5.15;;;43.10;15.00;;;;;;6250050;28;20234;-61
2021/04/22 09:14:19;;;;;;;6.13;5.72;;;42.20;15.30;;;;;;6248639;28;20566;-61
2021/04/22 09:17:23;;;;;;;5.72;5.20;;;40.50;15.70;;;;;;6249877;28;20266;-60
2021/04/22 09:20:32;;;;;;;6.65;6.15;;;38.30;16.50;;;;;;6249702;28;20231;-60
2021/04/22 09:23:34;;;;;;;5.65;5.15;;;35.40;17.80;;;;;;6249584;28;20362;-60
2021/04/22 09:26:39;;;;;;;5.80;4.88;;;33.10;19.20;;;;;;6249965;28;20242;-60
2021/04/22 09:29:45;;;;;;;5.78;5.28;;;30.90;21.20;;;;;;6249314;28;20564;-60
2021/04/22 09:32:47;;;;;;;6.40;5.80;;;29.80;22.50;;;;;;6249275;28;20678;-60
2021/04/22 09:35:50;;;;;;;6.03;5.20;;;28.10;24.00;;;;;;6248968;28;20696;-60
2021/04/22 09:38:54;;;;;;;6.20;5.70;;;26.90;25.10;;;;;;6240597;28;20254;-60
2021/04/22 09:42:05;;;;;;;6.30;5.80;;;25.70;26.80;;;;;;6249433;28;20243;-60
2021/04/22 09:45:11;;;;;;;6.63;5.33;;;24.60;27.80;;;;;;6249938;28;20262;-60
2021/04/22 09:48:15;;;;;;;5.07;4.67;;;24.10;28.10;;;;;;6252649;28;20613;-60
2021/04/22 09:51:29;;;;;;;6.70;5.87;;;23.50;25.60;;;;;;6257715;28;20250;-60
2021/04/22 09:54:32;;;;;;;5.77;5.27;;;23.10;27.30;;;;;;6256807;28;20233;-60
2021/04/22 09:57:35;;;;;;;5.43;4.93;;;22.20;27.80;;;;;;6256792;28;20259;-60
2021/04/22 10:00:39;;;;;;;5.73;5.23;;;22.30;29.90;;;;;;6255918;28;20240;-59
2021/04/22 10:03:50;;;;;;;5.80;5.30;;;22.30;29.40;;;;;;6256561;28;20246;-59
2021/04/22 10:06:52;;;;;;;5.07;4.20;;;22.30;29.40;;;;;;6256420;28;20330;-60
2021/04/22 10:09:57;;;;;;;4.57;4.20;;;23.00;29.10;;;;;;6257489;28;20204;-60
2021/04/22 10:13:00;;;;;;;4.30;3.90;;;24.00;27.80;;;;;;6257035;28;20239;-61
2021/04/22 10:16:04;;;;;;;6.13;5.00;;;24.60;27.10;;;;;;6257553;28;20204;-61
2021/04/22 10:19:17;;;;;;;4.50;4.10;;;25.10;26.60;;;;;;6257447;28;20227;-60
2021/04/22 10:22:27;;;;;;;5.70;5.07;;;25.50;25.80;;;;;;6257566;28;20290;-60
2021/04/22 10:25:32;;;;;;;6.00;4.90;;;25.60;26.10;;;;;;6257357;28;20224;-61
2021/04/22 10:28:34;;;;;;;4.53;4.13;;;25.50;25.20;;;;;;6257732;28;20233;-61
2021/04/22 10:31:38;;;;;;;5.37;4.97;;;25.00;24.90;;;;;;6257107;28;20238;-65
2021/04/22 10:34:41;;;;;;;5.33;4.77;;;24.40;25.00;;;;;;6256817;28;20236;-67
2021/04/22 10:37:44;;;;;;;9.33;4.57;;;23.90;25.80;;;;;;6256366;28;20228;-66
2021/04/22 10:40:51;;;;;;;5.67;4.60;;;23.50;27.50;;;;;;6247828;28;20656;-67
2021/04/22 10:43:54;;;;;;;6.03;4.77;;;22.60;28.60;;;;;;6257149;28;20279;-68
2021/04/22 10:47:02;;;;;;;4.87;4.37;;;22.10;29.40;;;;;;6265308;28;20227;-68
2021/04/22 10:50:08;;;;;;;5.00;4.60;;;21.70;29.20;;;;;;6256778;28;20256;-66
2021/04/22 10:53:13;;;;;;;5.30;4.50;;;21.60;29.60;;;;;;6256690;28;20231;-66
2021/04/22 10:56:26;;;;;;;4.17;3.87;;;21.40;30.00;;;;;;6257002;28;20571;-67
2021/04/22 10:59:28;;;;;;;3.17;2.90;;;21.00;29.70;;;;;;6252675;28;20573;-66
2021/04/22 11:02:41;;;;;;;4.67;4.27;;;20.80;30.00;;;;;;6252242;28;20235;-66
2021/04/22 11:05:54;;;;;;;4.50;3.30;;;20.60;32.00;;;;;;6250221;28;20687;-65
2021/04/22 11:08:56;;;;;;;3.90;3.60;;;20.60;32.70;;;;;;6252763;28;20224;-65
2021/04/22 11:12:00;;;;;;;5.97;4.07;;;20.80;32.70;;;;;;6252247;28;20220;-67
2021/04/22 11:15:05;;;;;;;4.20;3.80;;;20.80;32.80;;;;;;6252263;28;20718;-67
2021/04/22 11:18:12;;;;;;;3.97;3.67;;;21.00;32.80;;;;;;6251723;28;20300;-62
2021/04/22 11:21:23;;;;;;;4.10;3.80;;;21.50;32.00;;;;;;6252573;28;20594;-60
2021/04/22 11:24:28;;;;;;;5.00;3.80;;;21.90;30.80;;;;;;6251809;28;20240;-59
2021/04/22 11:27:46;;;;;;;4.87;4.47;;;22.30;29.90;;;;;;6252074;28;20610;-67
2021/04/22 11:30:49;;;;;;;5.03;4.17;;;22.50;29.30;;;;;;6251360;28;20549;-59
2021/04/22 11:34:04;;;;;;;4.40;4.00;;;22.40;29.80;;;;;;6252281;28;20224;-59
2021/04/22 11:37:14;;;;;;;3.50;3.20;;;22.70;30.00;;;;;;6251491;28;20231;-60
2021/04/22 11:40:18;;;;;;;4.50;4.10;;;22.70;29.10;;;;;;6251859;28;20243;-66
2021/04/22 11:43:21;;;;;;;4.63;4.23;;;22.60;28.60;;;;;;6246875;28;20236;-60
2021/04/22 11:46:33;;;;;;;5.40;4.87;;;22.70;28.90;;;;;;6260862;28;20266;-60
2021/04/22 11:49:36;;;;;;;4.70;4.30;;;22.50;29.80;;;;;;6251637;28;20372;-61
2021/04/22 11:52:47;;;;;;;4.23;3.93;;;22.20;30.10;;;;;;6251182;28;20574;-60
2021/04/22 11:55:52;;;;;;;6.10;3.83;;;22.20;29.70;;;;;;6250902;28;20762;-60
2021/04/22 11:58:54;;;;;;;4.53;4.20;;;22.20;29.80;;;;;;6251178;28;20232;-60
2021/04/22 12:01:59;;;;;;;8.60;4.43;;;22.60;30.70;;;;;;6251085;28;20220;-60
2021/04/22 12:05:02;;;;;;;4.90;4.50;;;22.90;30.60;;;;;;6251518;28;20240;-60
2021/04/22 12:08:06;;;;;;;9.20;4.73;;;23.00;30.20;;;;;;6250842;28;20256;-60
2021/04/22 12:11:14;;;;;;;4.90;4.40;;;22.80;30.20;;;;;;6250625;28;20684;-61
2021/04/22 12:14:26;;;;;;;4.93;4.53;;;22.70;30.70;;;;;;6250509;28;20294;-62
2021/04/22 12:17:31;;;;;;;5.33;4.30;;;22.60;30.90;;;;;;6251082;28;20243;-61
2021/04/22 12:20:35;;;;;;;5.30;4.20;;;22.30;31.50;;;;;;6250753;28;20229;-62
2021/04/22 12:23:42;;;;;;;5.43;4.93;;;22.00;32.50;;;;;;6251260;28;20274;-59
2021/04/22 12:26:51;;;;;;;4.80;4.40;;;21.30;33.70;;;;;;6250550;28;20236;-59
2021/04/22 12:29:54;;;;;;;5.33;4.83;;;21.60;33.50;;;;;;6250720;28;20227;-60
2021/04/22 12:33:09;;;;;;;4.87;3.97;;;21.80;33.00;;;;;;6250326;28;20232;-60
2021/04/22 12:36:12;;;;;;;4.03;3.73;;;21.70;33.20;;;;;;6250791;28;20248;-59
2021/04/22 12:39:23;;;;;;;4.40;3.90;;;21.70;32.90;;;;;;6249994;28;20338;-59
2021/04/22 12:42:27;;;;;;;4.90;4.27;;;21.40;33.60;;;;;;6250227;28;20232;-59
2021/04/22 12:45:31;;;;;;;5.70;3.90;;;20.90;33.80;;;;;;6259539;28;20346;-59
2021/04/22 12:48:35;;;;;;;4.73;4.30;;;20.70;34.20;;;;;;6250351;28;20566;-59
2021/04/22 12:51:40;;;;;;;5.43;4.13;;;20.60;35.00;;;;;;6245734;28;20236;-59
2021/04/22 12:54:42;;;;;;;8.20;3.90;;;20.80;34.80;;;;;;6249877;28;20244;-61
2021/04/22 12:57:51;;;;;;;5.30;4.57;;;20.80;33.80;;;;;;6249920;28;20228;-60
2021/04/22 13:00:55;;;;;;;8.20;3.93;;;21.00;33.80;;;;;;6249316;28;20247;-60
2021/04/22 13:04:01;;;;;;;5.10;4.60;;;21.10;33.30;;;;;;6250136;28;20317;-59
2021/04/22 13:07:04;;;;;;;4.50;4.10;;;21.30;33.10;;;;;;6249472;28;20218;-59
2021/04/22 13:10:10;;;;;;;4.47;4.00;;;21.50;33.80;;;;;;6249796;28;20204;-66
2021/04/22 13:13:13;;;;;;;4.90;4.50;;;21.40;34.60;;;;;;6249487;28;20228;-60
2021/04/22 13:16:17;;;;;;;4.80;4.30;;;21.10;35.40;;;;;;6249437;28;20224;-60
2021/04/22 13:19:22;;;;;;;3.93;3.63;;;20.70;36.70;;;;;;6249620;28;20248;-68
2021/04/22 13:22:26;;;;;;;4.37;3.97;;;20.20;38.70;;;;;;6249018;28;20232;-66
2021/04/22 13:25:31;;;;;;;4.00;3.60;;;19.70;39.90;;;;;;6249779;28;20228;-62
2021/04/22 13:28:33;;;;;;;6.73;4.20;;;19.40;42.80;;;;;;6248788;28;20239;-69
2021/04/22 13:31:36;;;;;;;5.60;4.03;;;19.10;45.00;;;;;;6248685;28;20493;-58
2021/04/22 13:34:41;;;;;;;5.30;4.80;;;18.70;49.20;;;;;;6249335;28;20479;-58
2021/04/22 13:37:44;;;;;;;6.87;4.63;;;18.20;50.30;;;;;;6248703;28;20479;-60
2021/04/22 13:40:49;;;;;;;6.33;4.00;;;17.80;53.60;;;;;;6248743;28;20478;-59
2021/04/22 13:43:54;;;;;;;5.30;4.03;;;17.50;54.20;;;;;;6249323;28;20471;-59
2021/04/22 13:46:58;;;;;;;4.97;4.47;;;17.30;55.20;;;;;;6258651;28;20474;-58
2021/04/22 13:50:01;;;;;;;5.00;4.60;;;17.20;57.10;;;;;;6249308;28;20475;-60
2021/04/22 13:53:05;;;;;;;5.43;4.93;;;17.00;61.80;;;;;;6239543;28;20475;-59
2021/04/22 13:56:08;;;;;;;4.80;4.40;;;17.00;60.80;;;;;;6249140;28;20486;-59
2021/04/22 13:59:11;;;;;;;4.90;4.50;;;16.90;59.40;;;;;;6248466;28;20479;-59
2021/04/22 14:02:15;;;;;;;5.00;4.60;;;16.80;57.40;;;;;;6248786;28;20549;-59
2021/04/22 14:05:22;;;;;;;3.93;3.63;;;16.70;56.90;;;;;;6248933;28;20500;-61
2021/04/22 14:08:30;;;;;;;4.00;3.53;;;16.70;55.60;;;;;;6249114;28;20475;-58
2021/04/22 14:11:36;;;;;;;3.77;3.47;;;16.80;55.60;;;;;;6248686;28;20467;-58
2021/04/22 14:14:42;;;;;;;3.33;3.13;;;16.50;55.10;;;;;;6248753;28;20612;-68
2021/04/22 14:17:44;;;;;;;3.77;3.47;;;16.60;55.90;;;;;;6248533;28;20479;-67
2021/04/22 14:20:46;;;;;;;4.20;3.80;;;16.70;56.40;;;;;;6248739;28;20606;-69
2021/04/22 14:23:53;;;;;;;3.73;3.43;;;16.80;56.80;;;;;;6248294;28;20501;-68
2021/04/22 14:26:55;;;;;;;3.90;3.50;;;17.10;57.90;;;;;;6248769;28;20474;-68
2021/04/22 14:29:58;;;;;;;4.20;3.53;;;17.60;57.10;;;;;;6248474;28;20513;-67
2021/04/22 14:33:00;;;;;;;3.77;3.47;;;18.00;57.80;;;;;;6248668;28;21026;-65
2021/04/22 14:36:03;;;;;;;3.87;3.57;;;18.20;54.40;;;;;;6252131;28;20475;-68
2021/04/22 14:39:08;;;;;;;3.80;3.30;;;18.40;52.70;;;;;;6252762;28;20488;-68
2021/04/22 14:42:10;;;;;;;3.30;3.00;;;18.60;51.10;;;;;;6253220;28;20482;-65
2021/04/22 14:45:13;;;;;;;3.93;3.07;;;18.60;49.60;;;;;;6262296;28;20477;-65
2021/04/22 14:48:15;;;;;;;2.93;2.73;;;18.50;50.80;;;;;;6252910;28;20555;-66
2021/04/22 14:51:18;;;;;;;3.53;3.23;;;18.60;50.60;;;;;;6252890;28;20236;-65
2021/04/22 14:54:21;;;;;;;3.50;3.20;;;18.80;49.50;;;;;;6252902;28;20689;-67
2021/04/22 14:57:23;;;;;;;4.10;3.70;;;19.00;48.00;;;;;;6243117;28;20582;-68
2021/04/22 15:00:26;;;;;;;5.13;4.10;;;19.10;47.70;;;;;;6252360;28;20563;-68
2021/04/22 15:03:30;;;;;;;3.80;3.50;;;19.20;52.10;;;;;;6252523;28;20506;-68
2021/04/22 15:06:36;;;;;;;3.47;3.17;;;19.20;51.60;;;;;;6252541;28;20264;-69
2021/04/22 15:09:41;;;;;;;3.13;2.83;;;19.00;51.40;;;;;;6252572;28;20228;-66
2021/04/22 15:12:43;;;;;;;3.80;3.50;;;19.00;52.10;;;;;;6252370;28;20251;-69
2021/04/22 15:15:46;;;;;;;3.07;2.87;;;18.80;53.20;;;;;;6252429;28;20232;-68
2021/04/22 15:18:49;;;;;;;3.97;3.67;;;18.70;53.90;;;;;;6251961;28;21030;-67
2021/04/22 15:21:52;;;;;;;3.80;3.50;;;18.60;54.20;;;;;;6252127;28;20250;-68
2021/04/22 15:24:55;;;;;;;3.27;2.97;;;18.50;54.90;;;;;;6251052;28;20574;-69
2021/04/22 15:27:57;;;;;;;5.63;3.27;;;18.40;55.40;;;;;;6251596;28;20449;-64
2021/04/22 15:31:00;;;;;;;4.13;3.73;;;18.30;53.10;;;;;;6251485;28;20461;-65
2021/04/22 15:34:03;;;;;;;3.83;3.47;;;18.10;54.70;;;;;;6251892;28;20463;-70
2021/04/22 15:37:06;;;;;;;3.77;3.47;;;17.90;54.60;;;;;;6251546;28;20498;-71
2021/04/22 15:40:10;;;;;;;4.50;4.10;;;17.70;55.50;;;;;;6251646;28;20817;-68
2021/04/22 15:43:15;;;;;;;3.77;3.40;;;17.80;55.40;;;;;;6251935;28;20462;-67
2021/04/22 15:46:17;;;;;;;3.90;3.60;;;17.70;55.30;;;;;;6260013;28;20473;-66
2021/04/22 15:49:19;;;;;;;5.07;3.00;;;17.50;54.10;;;;;;6252186;28;20462;-66
2021/04/22 15:52:22;;;;;;;3.83;3.53;;;17.50;54.00;;;;;;6251184;28;20554;-65
2021/04/22 15:55:28;;;;;;;3.67;3.37;;;17.50;54.10;;;;;;6251933;28;20475;-66
2021/04/22 15:58:30;;;;;;;4.07;3.77;;;17.70;53.10;;;;;;6246879;28;20824;-65
2021/04/22 16:01:33;;;;;;;4.23;3.83;;;17.90;52.80;;;;;;6251115;28;20590;-69